createdAt,value
2022-12-18T00:01:33.989Z,9.65
2022-12-18T00:06:36.470Z,7.68
2022-12-18T00:11:37.826Z,7.03
2022-12-18T00:16:40.090Z,7.53
2022-12-18T00:21:42.813Z,7.70
2022-12-18T00:26:44.205Z,7.78
2022-12-18T00:31:46.836Z,8.77
2022-12-18T00:36:49.213Z,7.78
2022-12-18T00:42:08.938Z,7.82
2022-12-18T00:47:10.286Z,6.88
2022-12-18T00:52:11.715Z,8.30
2022-12-18T00:57:13.077Z,8.07
2022-12-18T01:02:14.561Z,6.68
2022-12-18T01:07:15.978Z,8.73
2022-12-18T01:12:17.371Z,7.32
2022-12-18T01:17:18.754Z,7.88
2022-12-18T01:22:20.130Z,7.68
2022-12-18T01:27:21.533Z,7.25
2022-12-18T01:32:23.360Z,7.25
2022-12-18T01:37:24.806Z,7.45
2022-12-18T01:42:26.546Z,7.57
2022-12-18T01:47:45.740Z,6.97
2022-12-18T01:52:50.864Z,7.45
2022-12-18T01:57:57.289Z,7.07
2022-12-18T02:02:58.746Z,7.95
2022-12-18T02:08:05.884Z,6.55
2022-12-18T02:13:21.890Z,8.80
2022-12-18T02:18:33.424Z,7.78
2022-12-18T02:23:53.432Z,8.10
2022-12-18T02:29:00.563Z,8.18
2022-12-18T02:34:06.500Z,8.63
2022-12-18T02:39:11.576Z,7.93
2022-12-18T02:44:15.140Z,7.20
2022-12-18T02:49:28.858Z,7.72
2022-12-18T02:55:18.100Z,7.32
2022-12-18T03:00:25.944Z,10.05
2022-12-18T03:05:39.524Z,7.28
2022-12-18T03:10:46.465Z,6.95
2022-12-18T03:15:52.476Z,7.18
2022-12-18T03:20:56.621Z,7.82
2022-12-18T03:26:07.320Z,7.75
2022-12-18T03:31:12.895Z,8.05
2022-12-18T03:36:15.251Z,7.22
2022-12-18T03:41:24.395Z,8.27
2022-12-18T03:46:43.081Z,8.10
2022-12-18T03:51:54.189Z,6.85
2022-12-18T03:57:05.727Z,7.88
2022-12-18T04:02:08.993Z,8.82
2022-12-18T04:07:11.345Z,8.93
2022-12-18T04:12:12.704Z,8.52
2022-12-18T04:17:14.714Z,8.75
2022-12-18T04:22:16.419Z,6.97
2022-12-18T04:27:17.816Z,8.13
2022-12-18T04:32:19.244Z,6.78
2022-12-18T04:37:20.608Z,8.57
2022-12-18T04:42:22.111Z,7.47
2022-12-18T04:47:23.445Z,6.85
2022-12-18T04:52:25.012Z,7.47
2022-12-18T04:57:27.002Z,7.38
2022-12-18T05:02:28.462Z,6.30
2022-12-18T05:07:29.900Z,5.35
2022-12-18T05:12:32.481Z,5.82
2022-12-18T05:17:33.895Z,6.03
2022-12-18T05:22:35.256Z,5.97
2022-12-18T05:27:36.599Z,6.18
2022-12-18T05:32:38.428Z,5.90
2022-12-18T05:37:43.171Z,5.60
2022-12-18T05:42:44.941Z,5.57
2022-12-18T05:47:46.299Z,6.75
2022-12-18T05:52:47.644Z,10.65
2022-12-18T05:57:48.998Z,7.90
2022-12-18T06:02:50.455Z,6.70
2022-12-18T06:07:51.934Z,7.00
2022-12-18T06:12:53.731Z,5.72
2022-12-18T06:17:55.178Z,6.20
2022-12-18T06:22:56.566Z,8.90
2022-12-18T06:27:57.898Z,7.72
2022-12-18T06:32:59.365Z,6.35
2022-12-18T06:38:02.387Z,5.72
2022-12-18T06:43:03.716Z,6.90
2022-12-18T06:48:05.179Z,7.15
2022-12-18T06:53:06.532Z,5.78
2022-12-18T06:58:08.838Z,7.72
2022-12-18T07:03:12.672Z,6.53
2022-12-18T07:08:14.098Z,8.70
2022-12-18T07:13:18.812Z,6.80
2022-12-18T07:18:20.257Z,7.05
2022-12-18T07:23:21.607Z,6.90
2022-12-18T07:28:22.994Z,8.82
2022-12-18T07:33:26.154Z,6.38
2022-12-18T07:38:28.228Z,8.60
2022-12-18T07:43:29.814Z,6.95
2022-12-18T07:48:31.731Z,8.65
2022-12-18T07:53:34.908Z,8.50
2022-12-18T07:58:37.155Z,7.85
2022-12-18T08:03:40.360Z,6.78
2022-12-18T08:08:43.102Z,8.60
2022-12-18T08:13:44.467Z,7.82
2022-12-18T08:18:46.262Z,7.85
2022-12-18T08:23:48.722Z,10.50
2022-12-18T08:28:51.306Z,10.40
2022-12-18T08:33:53.947Z,10.18
2022-12-18T08:38:57.548Z,12.50
2022-12-18T08:44:17.849Z,9.70
2022-12-18T08:49:19.301Z,9.73
2022-12-18T08:54:20.674Z,10.35
2022-12-18T08:59:22.072Z,8.93
2022-12-18T09:04:23.743Z,10.75
2022-12-18T09:09:25.282Z,11.05
2022-12-18T09:14:26.620Z,12.23
2022-12-18T09:19:28.112Z,13.73
2022-12-18T09:24:29.501Z,13.45
2022-12-18T09:29:31.049Z,10.85
2022-12-18T09:34:32.399Z,12.00
2022-12-18T09:39:36.806Z,11.32
2022-12-18T09:44:47.347Z,13.27
2022-12-18T09:49:56.010Z,14.15
2022-12-18T09:55:10.483Z,13.52
2022-12-18T10:00:19.982Z,15.82
2022-12-18T10:05:41.044Z,13.60
2022-12-18T10:11:02.375Z,16.23
2022-12-18T10:16:16.406Z,16.83
2022-12-18T10:21:24.775Z,18.10
2022-12-18T10:26:26.318Z,19.50
2022-12-18T10:31:27.764Z,18.15
2022-12-18T10:36:30.033Z,19.65
2022-12-18T10:41:33.215Z,18.60
2022-12-18T10:46:34.605Z,18.58
2022-12-18T10:51:38.406Z,19.23
2022-12-18T10:56:40.442Z,19.77
2022-12-18T11:01:48.445Z,19.40
2022-12-18T11:06:59.023Z,20.67
2022-12-18T11:12:03.778Z,17.70
2022-12-18T11:22:32.899Z,18.25
2022-12-18T11:27:34.386Z,16.13
2022-12-18T11:32:41.708Z,17.73
2022-12-18T11:37:48.820Z,19.85
2022-12-18T11:42:59.096Z,18.42
2022-12-18T11:48:19.607Z,19.25
2022-12-18T11:53:21.496Z,15.95
2022-12-18T11:58:35.765Z,18.10
2022-12-18T12:04:14.854Z,16.20
2022-12-18T12:09:47.784Z,18.80
2022-12-18T12:15:18.055Z,18.67
2022-12-18T12:20:44.252Z,17.63
2022-12-18T12:25:48.969Z,16.52
2022-12-18T12:31:16.249Z,17.75
2022-12-18T12:36:31.744Z,15.73
2022-12-18T12:41:55.102Z,19.25
2022-12-18T12:47:01.528Z,16.88
2022-12-18T12:52:12.826Z,18.17
2022-12-18T12:57:21.349Z,18.45
2022-12-18T13:02:25.114Z,17.60
2022-12-18T13:07:33.569Z,16.17
2022-12-18T13:18:28.891Z,17.38
2022-12-18T13:23:32.062Z,18.02
2022-12-18T13:28:33.737Z,15.15
2022-12-18T13:33:35.397Z,14.63
2022-12-18T13:38:40.770Z,18.70
2022-12-18T13:43:50.600Z,17.75
2022-12-18T13:48:56.617Z,18.50
2022-12-18T13:54:06.942Z,16.73
2022-12-18T13:59:41.091Z,19.63
2022-12-18T14:04:46.419Z,19.40
2022-12-18T14:09:55.616Z,16.75
2022-12-18T14:15:04.841Z,16.70
2022-12-18T14:20:15.633Z,18.38
2022-12-18T14:25:23.078Z,17.20
2022-12-18T14:30:24.540Z,15.02
2022-12-18T14:35:25.954Z,16.70
2022-12-18T14:40:27.439Z,16.83
2022-12-18T14:45:45.271Z,17.73
2022-12-18T14:51:15.314Z,17.10
2022-12-18T14:56:28.123Z,16.77
2022-12-18T15:01:38.177Z,17.02
2022-12-18T15:06:40.998Z,17.75
2022-12-18T15:11:42.303Z,16.90
2022-12-18T15:16:46.238Z,19.58
2022-12-18T15:21:47.759Z,19.75
2022-12-18T15:26:49.883Z,21.05
2022-12-18T15:32:06.362Z,21.00
2022-12-18T15:37:08.857Z,21.63
2022-12-18T15:42:29.786Z,18.73
2022-12-18T15:47:31.154Z,18.45
2022-12-18T15:52:44.946Z,21.13
2022-12-18T15:57:46.349Z,20.10
2022-12-18T16:02:47.905Z,19.98
2022-12-18T16:07:49.597Z,16.17
2022-12-18T16:12:51.302Z,18.60
2022-12-18T16:17:53.149Z,20.95
2022-12-18T16:22:54.505Z,19.15
2022-12-18T16:27:57.256Z,19.63
2022-12-18T16:32:59.281Z,18.88
2022-12-18T16:38:00.662Z,21.83
2022-12-18T16:43:02.073Z,21.50
2022-12-18T16:48:03.991Z,20.85
2022-12-18T16:53:05.349Z,21.67
2022-12-18T16:58:06.719Z,23.50
2022-12-18T17:03:08.315Z,22.80
2022-12-18T17:08:09.922Z,22.42
2022-12-18T17:13:11.353Z,22.00
2022-12-18T17:18:12.860Z,23.58
2022-12-18T17:23:14.242Z,22.00
2022-12-18T17:28:15.674Z,22.92
2022-12-18T17:33:17.105Z,32.25
2022-12-18T17:38:18.524Z,29.23
2022-12-18T17:43:20.083Z,28.85
2022-12-18T17:48:21.935Z,26.33
2022-12-18T17:53:23.596Z,24.92
2022-12-18T17:58:25.046Z,26.20
2022-12-18T18:03:26.711Z,23.90
2022-12-18T18:08:29.001Z,23.33
2022-12-18T18:13:49.522Z,21.45
2022-12-18T18:18:51.248Z,21.55
2022-12-18T18:23:52.662Z,22.92
2022-12-18T18:28:55.111Z,20.45
2022-12-18T18:33:57.642Z,21.23
2022-12-18T18:39:03.098Z,22.83
2022-12-18T18:44:05.014Z,22.23
2022-12-18T18:49:06.871Z,25.80
2022-12-18T18:54:09.642Z,23.83
2022-12-18T18:59:11.045Z,21.38
2022-12-18T19:04:12.545Z,25.00
2022-12-18T19:09:13.958Z,24.65
2022-12-18T19:14:16.078Z,22.23
2022-12-18T19:19:20.954Z,20.55
2022-12-18T19:24:22.814Z,22.17
2022-12-18T19:29:24.223Z,20.63
2022-12-18T19:34:25.794Z,20.02
2022-12-18T19:39:27.321Z,19.95
2022-12-18T19:44:28.736Z,19.45
2022-12-18T19:49:31.995Z,20.17
2022-12-18T19:54:33.641Z,21.15
2022-12-18T19:59:36.877Z,22.55
2022-12-18T20:04:40.473Z,18.77
2022-12-18T20:09:41.827Z,20.23
2022-12-18T20:14:43.707Z,19.38
2022-12-18T20:19:45.438Z,20.73
2022-12-18T20:24:46.838Z,20.10
2022-12-18T20:29:50.971Z,16.63
2022-12-18T20:34:52.327Z,18.83
2022-12-18T20:39:55.024Z,19.38
2022-12-18T20:44:56.845Z,17.95
2022-12-18T20:49:58.407Z,17.85
2022-12-18T20:54:59.854Z,16.15
2022-12-18T21:00:02.512Z,19.45
2022-12-18T21:05:04.430Z,18.48
2022-12-18T21:10:06.410Z,18.17
2022-12-18T21:15:09.510Z,17.65
2022-12-18T21:20:11.091Z,15.50
2022-12-18T21:30:20.103Z,16.70
2022-12-18T21:35:21.492Z,17.10
2022-12-18T21:40:24.951Z,16.20
2022-12-18T21:45:26.311Z,19.67
2022-12-18T21:50:27.707Z,20.35
2022-12-18T21:55:29.061Z,17.70
2022-12-18T22:00:30.393Z,19.75
2022-12-18T22:05:31.764Z,19.67
2022-12-18T22:10:33.185Z,18.35
2022-12-18T22:15:34.747Z,17.92
2022-12-18T22:20:36.167Z,17.70
2022-12-18T22:25:39.681Z,20.00
2022-12-18T22:30:41.514Z,19.70
2022-12-18T22:35:43.007Z,17.75
2022-12-18T22:40:44.790Z,17.17
2022-12-18T22:45:47.283Z,17.73
2022-12-18T22:50:49.558Z,19.15
2022-12-18T22:55:52.289Z,18.65
2022-12-18T23:00:54.218Z,17.83
2022-12-18T23:06:03.075Z,16.60
2022-12-18T23:11:05.325Z,18.63
2022-12-18T23:16:09.015Z,18.90
2022-12-18T23:21:13.919Z,17.70
2022-12-18T23:26:21.914Z,19.25
2022-12-18T23:36:26.406Z,17.15
2022-12-18T23:41:31.329Z,16.77
2022-12-18T23:46:35.973Z,18.80
2022-12-18T23:51:37.738Z,17.63
2022-12-18T23:56:40.894Z,17.65
